sensor_id;sensor_type;location;lat;lon;timestamp;P1;durP1;ratioP1;P2;durP2;ratioP2
43042;SDS011;28667;50.758;6.096;2022-11-14T00:00:07;1.90;;;0.97;;
43042;SDS011;28667;50.758;6.096;2022-11-14T00:02:54;2.40;;;1.30;;
43042;SDS011;28667;50.758;6.096;2022-11-14T00:05:43;0.90;;;0.90;;
43042;SDS011;28667;50.758;6.096;2022-11-14T00:08:28;4.85;;;1.02;;
43042;SDS011;28667;50.758;6.096;2022-11-14T00:11:12;1.38;;;0.98;;
43042;SDS011;28667;50.758;6.096;2022-11-14T00:13:56;2.17;;;1.08;;
43042;SDS011;28667;50.758;6.096;2022-11-14T00:16:40;1.15;;;0.95;;
43042;SDS011;28667;50.758;6.096;2022-11-14T00:19:24;1.98;;;1.15;;
43042;SDS011;28667;50.758;6.096;2022-11-14T00:22:08;1.20;;;0.95;;
43042;SDS011;28667;50.758;6.096;2022-11-14T00:24:53;2.03;;;1.03;;
43042;SDS011;28667;50.758;6.096;2022-11-14T00:27:37;1.17;;;0.90;;
43042;SDS011;28667;50.758;6.096;2022-11-14T00:30:21;1.55;;;0.85;;
43042;SDS011;28667;50.758;6.096;2022-11-14T00:33:05;1.00;;;0.82;;
43042;SDS011;28667;50.758;6.096;2022-11-14T00:35:50;1.38;;;0.80;;
43042;SDS011;28667;50.758;6.096;2022-11-14T00:38:36;3.13;;;1.10;;
43042;SDS011;28667;50.758;6.096;2022-11-14T00:41:20;1.23;;;0.85;;
43042;SDS011;28667;50.758;6.096;2022-11-14T00:44:04;1.73;;;1.00;;
43042;SDS011;28667;50.758;6.096;2022-11-14T00:46:48;3.63;;;0.88;;
43042;SDS011;28667;50.758;6.096;2022-11-14T00:49:33;1.42;;;0.90;;
43042;SDS011;28667;50.758;6.096;2022-11-14T00:55:03;1.23;;;1.10;;
43042;SDS011;28667;50.758;6.096;2022-11-14T00:57:48;2.63;;;1.25;;
43042;SDS011;28667;50.758;6.096;2022-11-14T01:00:32;1.55;;;1.13;;
43042;SDS011;28667;50.758;6.096;2022-11-14T01:03:17;2.97;;;1.08;;
43042;SDS011;28667;50.758;6.096;2022-11-14T01:06:05;0.70;;;0.70;;
43042;SDS011;28667;50.758;6.096;2022-11-14T01:08:50;2.47;;;1.20;;
43042;SDS011;28667;50.758;6.096;2022-11-14T01:11:35;1.65;;;1.27;;
43042;SDS011;28667;50.758;6.096;2022-11-14T01:14:19;1.90;;;1.25;;
43042;SDS011;28667;50.758;6.096;2022-11-14T01:17:03;1.27;;;1.15;;
43042;SDS011;28667;50.758;6.096;2022-11-14T01:19:47;2.80;;;0.85;;
43042;SDS011;28667;50.758;6.096;2022-11-14T01:22:31;2.63;;;1.02;;
43042;SDS011;28667;50.758;6.096;2022-11-14T01:25:15;2.15;;;1.40;;
43042;SDS011;28667;50.758;6.096;2022-11-14T01:27:59;1.30;;;1.20;;
43042;SDS011;28667;50.758;6.096;2022-11-14T01:30:44;0.95;;;0.85;;
43042;SDS011;28667;50.758;6.096;2022-11-14T01:33:29;1.10;;;0.80;;
43042;SDS011;28667;50.758;6.096;2022-11-14T01:36:13;1.23;;;1.00;;
43042;SDS011;28667;50.758;6.096;2022-11-14T01:38:57;1.48;;;0.93;;
43042;SDS011;28667;50.758;6.096;2022-11-14T01:41:41;2.00;;;0.90;;
43042;SDS011;28667;50.758;6.096;2022-11-14T01:47:31;2.83;;;1.20;;
43042;SDS011;28667;50.758;6.096;2022-11-14T01:50:16;1.48;;;1.10;;
43042;SDS011;28667;50.758;6.096;2022-11-14T01:53:00;1.50;;;1.00;;
43042;SDS011;28667;50.758;6.096;2022-11-14T01:55:45;1.15;;;0.90;;
43042;SDS011;28667;50.758;6.096;2022-11-14T01:58:30;3.40;;;1.27;;
43042;SDS011;28667;50.758;6.096;2022-11-14T02:01:16;0.80;;;0.55;;
43042;SDS011;28667;50.758;6.096;2022-11-14T02:04:00;1.20;;;0.98;;
43042;SDS011;28667;50.758;6.096;2022-11-14T02:06:47;1.17;;;1.08;;
43042;SDS011;28667;50.758;6.096;2022-11-14T02:09:34;0.55;;;0.50;;
43042;SDS011;28667;50.758;6.096;2022-11-14T02:12:19;1.52;;;0.85;;
43042;SDS011;28667;50.758;6.096;2022-11-14T02:15:04;1.02;;;0.90;;
43042;SDS011;28667;50.758;6.096;2022-11-14T02:17:50;2.78;;;1.30;;
43042;SDS011;28667;50.758;6.096;2022-11-14T02:20:37;1.15;;;0.85;;
43042;SDS011;28667;50.758;6.096;2022-11-14T02:23:26;0.98;;;0.93;;
43042;SDS011;28667;50.758;6.096;2022-11-14T02:26:14;1.27;;;0.98;;
43042;SDS011;28667;50.758;6.096;2022-11-14T02:29:00;0.80;;;0.80;;
43042;SDS011;28667;50.758;6.096;2022-11-14T02:31:44;1.13;;;1.00;;
43042;SDS011;28667;50.758;6.096;2022-11-14T02:34:28;3.63;;;1.30;;
43042;SDS011;28667;50.758;6.096;2022-11-14T02:37:13;0.63;;;0.63;;
43042;SDS011;28667;50.758;6.096;2022-11-14T02:39:57;1.77;;;0.95;;
43042;SDS011;28667;50.758;6.096;2022-11-14T02:42:41;1.80;;;1.17;;
43042;SDS011;28667;50.758;6.096;2022-11-14T02:45:25;0.80;;;0.80;;
43042;SDS011;28667;50.758;6.096;2022-11-14T02:48:10;1.48;;;0.77;;
43042;SDS011;28667;50.758;6.096;2022-11-14T02:50:54;2.85;;;1.20;;
43042;SDS011;28667;50.758;6.096;2022-11-14T02:53:38;0.70;;;0.70;;
43042;SDS011;28667;50.758;6.096;2022-11-14T02:56:22;1.75;;;0.82;;
43042;SDS011;28667;50.758;6.096;2022-11-14T02:59:06;1.65;;;1.02;;
43042;SDS011;28667;50.758;6.096;2022-11-14T03:01:50;1.45;;;0.75;;
43042;SDS011;28667;50.758;6.096;2022-11-14T03:04:34;1.45;;;1.33;;
43042;SDS011;28667;50.758;6.096;2022-11-14T03:07:18;1.30;;;1.20;;
43042;SDS011;28667;50.758;6.096;2022-11-14T03:10:03;3.53;;;1.35;;
43042;SDS011;28667;50.758;6.096;2022-11-14T03:12:52;0.87;;;0.83;;
43042;SDS011;28667;50.758;6.096;2022-11-14T03:15:39;1.38;;;1.00;;
43042;SDS011;28667;50.758;6.096;2022-11-14T03:18:23;1.75;;;0.80;;
43042;SDS011;28667;50.758;6.096;2022-11-14T03:21:09;2.28;;;1.08;;
43042;SDS011;28667;50.758;6.096;2022-11-14T03:23:55;0.73;;;0.73;;
43042;SDS011;28667;50.758;6.096;2022-11-14T03:26:39;0.88;;;0.73;;
43042;SDS011;28667;50.758;6.096;2022-11-14T03:29:23;1.92;;;1.25;;
43042;SDS011;28667;50.758;6.096;2022-11-14T03:32:07;1.38;;;0.68;;
43042;SDS011;28667;50.758;6.096;2022-11-14T03:34:52;4.40;;;1.53;;
43042;SDS011;28667;50.758;6.096;2022-11-14T03:37:37;1.00;;;0.90;;
43042;SDS011;28667;50.758;6.096;2022-11-14T03:40:21;0.90;;;0.90;;
43042;SDS011;28667;50.758;6.096;2022-11-14T03:43:05;3.30;;;0.90;;
43042;SDS011;28667;50.758;6.096;2022-11-14T03:45:49;1.48;;;0.90;;
43042;SDS011;28667;50.758;6.096;2022-11-14T03:48:33;0.80;;;0.80;;
43042;SDS011;28667;50.758;6.096;2022-11-14T03:51:17;2.70;;;1.30;;
43042;SDS011;28667;50.758;6.096;2022-11-14T03:54:02;1.30;;;0.90;;
43042;SDS011;28667;50.758;6.096;2022-11-14T03:56:46;1.02;;;0.93;;
43042;SDS011;28667;50.758;6.096;2022-11-14T03:59:30;0.95;;;0.85;;
43042;SDS011;28667;50.758;6.096;2022-11-14T04:02:14;3.17;;;1.02;;
43042;SDS011;28667;50.758;6.096;2022-11-14T04:04:58;1.65;;;1.00;;
43042;SDS011;28667;50.758;6.096;2022-11-14T04:07:43;0.70;;;0.70;;
43042;SDS011;28667;50.758;6.096;2022-11-14T04:10:27;0.68;;;0.68;;
43042;SDS011;28667;50.758;6.096;2022-11-14T04:13:11;1.83;;;1.10;;
43042;SDS011;28667;50.758;6.096;2022-11-14T04:15:56;2.13;;;0.85;;
43042;SDS011;28667;50.758;6.096;2022-11-14T04:18:41;2.15;;;1.60;;
43042;SDS011;28667;50.758;6.096;2022-11-14T04:21:25;1.80;;;1.08;;
43042;SDS011;28667;50.758;6.096;2022-11-14T04:24:09;2.88;;;1.00;;
43042;SDS011;28667;50.758;6.096;2022-11-14T04:26:53;1.25;;;0.98;;
43042;SDS011;28667;50.758;6.096;2022-11-14T04:29:38;2.70;;;1.58;;
43042;SDS011;28667;50.758;6.096;2022-11-14T04:32:22;2.10;;;1.20;;
43042;SDS011;28667;50.758;6.096;2022-11-14T04:35:06;3.80;;;1.30;;
43042;SDS011;28667;50.758;6.096;2022-11-14T04:37:50;1.33;;;1.10;;
43042;SDS011;28667;50.758;6.096;2022-11-14T04:40:34;1.50;;;1.30;;
43042;SDS011;28667;50.758;6.096;2022-11-14T04:43:19;4.82;;;1.27;;
43042;SDS011;28667;50.758;6.096;2022-11-14T04:46:03;2.85;;;1.60;;
43042;SDS011;28667;50.758;6.096;2022-11-14T04:48:48;1.83;;;1.10;;
43042;SDS011;28667;50.758;6.096;2022-11-14T04:51:32;1.90;;;1.15;;
43042;SDS011;28667;50.758;6.096;2022-11-14T04:54:16;2.17;;;1.13;;
43042;SDS011;28667;50.758;6.096;2022-11-14T04:57:00;1.20;;;1.10;;
43042;SDS011;28667;50.758;6.096;2022-11-14T04:59:44;2.17;;;1.25;;
43042;SDS011;28667;50.758;6.096;2022-11-14T05:02:31;1.48;;;1.20;;
43042;SDS011;28667;50.758;6.096;2022-11-14T05:05:15;2.03;;;0.90;;
43042;SDS011;28667;50.758;6.096;2022-11-14T05:08:00;1.20;;;1.10;;
43042;SDS011;28667;50.758;6.096;2022-11-14T05:10:44;3.40;;;1.50;;
43042;SDS011;28667;50.758;6.096;2022-11-14T05:13:28;2.85;;;1.20;;
43042;SDS011;28667;50.758;6.096;2022-11-14T05:16:13;1.42;;;1.33;;
43042;SDS011;28667;50.758;6.096;2022-11-14T05:18:57;1.92;;;1.17;;
43042;SDS011;28667;50.758;6.096;2022-11-14T05:21:41;1.77;;;1.05;;
43042;SDS011;28667;50.758;6.096;2022-11-14T05:24:25;2.53;;;1.30;;
43042;SDS011;28667;50.758;6.096;2022-11-14T05:27:11;1.83;;;1.30;;
43042;SDS011;28667;50.758;6.096;2022-11-14T05:29:55;2.22;;;1.52;;
43042;SDS011;28667;50.758;6.096;2022-11-14T05:32:40;4.20;;;1.70;;
43042;SDS011;28667;50.758;6.096;2022-11-14T05:35:24;3.38;;;1.50;;
43042;SDS011;28667;50.758;6.096;2022-11-14T05:38:08;1.95;;;1.70;;
43042;SDS011;28667;50.758;6.096;2022-11-14T05:40:52;3.30;;;2.13;;
43042;SDS011;28667;50.758;6.096;2022-11-14T05:43:36;1.73;;;1.63;;
43042;SDS011;28667;50.758;6.096;2022-11-14T05:46:20;2.30;;;1.52;;
43042;SDS011;28667;50.758;6.096;2022-11-14T05:49:04;2.35;;;1.67;;
43042;SDS011;28667;50.758;6.096;2022-11-14T05:51:48;2.25;;;1.50;;
43042;SDS011;28667;50.758;6.096;2022-11-14T05:54:33;2.05;;;1.65;;
43042;SDS011;28667;50.758;6.096;2022-11-14T05:57:17;2.75;;;1.70;;
43042;SDS011;28667;50.758;6.096;2022-11-14T06:00:02;2.83;;;1.38;;
43042;SDS011;28667;50.758;6.096;2022-11-14T06:02:50;3.00;;;2.25;;
43042;SDS011;28667;50.758;6.096;2022-11-14T06:05:35;3.20;;;1.60;;
43042;SDS011;28667;50.758;6.096;2022-11-14T06:08:19;3.80;;;1.60;;
43042;SDS011;28667;50.758;6.096;2022-11-14T06:11:04;3.42;;;1.45;;
43042;SDS011;28667;50.758;6.096;2022-11-14T06:13:53;2.75;;;1.50;;
43042;SDS011;28667;50.758;6.096;2022-11-14T06:16:37;3.00;;;1.63;;
43042;SDS011;28667;50.758;6.096;2022-11-14T06:19:21;2.47;;;1.50;;
43042;SDS011;28667;50.758;6.096;2022-11-14T06:22:06;2.10;;;1.52;;
43042;SDS011;28667;50.758;6.096;2022-11-14T06:24:50;2.22;;;1.75;;
43042;SDS011;28667;50.758;6.096;2022-11-14T06:27:34;4.90;;;1.95;;
43042;SDS011;28667;50.758;6.096;2022-11-14T06:30:18;3.38;;;2.08;;
43042;SDS011;28667;50.758;6.096;2022-11-14T06:33:02;6.18;;;2.17;;
43042;SDS011;28667;50.758;6.096;2022-11-14T06:35:46;8.57;;;1.73;;
43042;SDS011;28667;50.758;6.096;2022-11-14T06:38:31;6.35;;;2.30;;
43042;SDS011;28667;50.758;6.096;2022-11-14T06:41:18;5.75;;;2.15;;
43042;SDS011;28667;50.758;6.096;2022-11-14T06:44:05;3.22;;;2.15;;
43042;SDS011;28667;50.758;6.096;2022-11-14T06:46:51;4.10;;;2.05;;
43042;SDS011;28667;50.758;6.096;2022-11-14T06:49:35;2.67;;;1.92;;
43042;SDS011;28667;50.758;6.096;2022-11-14T06:52:19;2.72;;;1.48;;
43042;SDS011;28667;50.758;6.096;2022-11-14T06:55:05;1.50;;;1.38;;
43042;SDS011;28667;50.758;6.096;2022-11-14T06:57:52;3.63;;;2.47;;
43042;SDS011;28667;50.758;6.096;2022-11-14T07:00:38;3.38;;;2.05;;
43042;SDS011;28667;50.758;6.096;2022-11-14T07:03:22;3.67;;;1.90;;
43042;SDS011;28667;50.758;6.096;2022-11-14T07:06:07;4.25;;;1.52;;
43042;SDS011;28667;50.758;6.096;2022-11-14T07:08:54;4.38;;;1.73;;
43042;SDS011;28667;50.758;6.096;2022-11-14T07:11:40;2.78;;;2.00;;
43042;SDS011;28667;50.758;6.096;2022-11-14T07:14:24;1.80;;;1.63;;
43042;SDS011;28667;50.758;6.096;2022-11-14T07:17:08;2.30;;;1.58;;
43042;SDS011;28667;50.758;6.096;2022-11-14T07:19:52;2.42;;;2.22;;
43042;SDS011;28667;50.758;6.096;2022-11-14T07:22:37;2.90;;;2.10;;
43042;SDS011;28667;50.758;6.096;2022-11-14T07:25:21;2.47;;;1.73;;
43042;SDS011;28667;50.758;6.096;2022-11-14T07:28:05;4.55;;;2.00;;
43042;SDS011;28667;50.758;6.096;2022-11-14T07:30:50;5.40;;;2.20;;
43042;SDS011;28667;50.758;6.096;2022-11-14T07:33:34;3.58;;;1.83;;
43042;SDS011;28667;50.758;6.096;2022-11-14T07:36:19;4.27;;;2.33;;
43042;SDS011;28667;50.758;6.096;2022-11-14T07:39:03;2.97;;;1.90;;
43042;SDS011;28667;50.758;6.096;2022-11-14T07:41:47;3.65;;;1.73;;
43042;SDS011;28667;50.758;6.096;2022-11-14T07:44:31;2.15;;;1.98;;
43042;SDS011;28667;50.758;6.096;2022-11-14T07:47:15;1.60;;;1.50;;
43042;SDS011;28667;50.758;6.096;2022-11-14T07:50:00;3.58;;;2.00;;
43042;SDS011;28667;50.758;6.096;2022-11-14T07:52:49;3.88;;;2.22;;
43042;SDS011;28667;50.758;6.096;2022-11-14T07:55:37;2.58;;;2.33;;
43042;SDS011;28667;50.758;6.096;2022-11-14T07:58:22;3.28;;;2.63;;
43042;SDS011;28667;50.758;6.096;2022-11-14T08:01:07;2.22;;;1.98;;
43042;SDS011;28667;50.758;6.096;2022-11-14T08:03:53;3.70;;;2.58;;
43042;SDS011;28667;50.758;6.096;2022-11-14T08:06:37;4.95;;;2.53;;
43042;SDS011;28667;50.758;6.096;2022-11-14T08:09:21;2.63;;;2.10;;
43042;SDS011;28667;50.758;6.096;2022-11-14T08:12:06;3.43;;;2.33;;
43042;SDS011;28667;50.758;6.096;2022-11-14T08:14:50;3.47;;;2.08;;
43042;SDS011;28667;50.758;6.096;2022-11-14T08:17:34;3.58;;;2.47;;
43042;SDS011;28667;50.758;6.096;2022-11-14T08:20:19;3.47;;;2.10;;
43042;SDS011;28667;50.758;6.096;2022-11-14T08:23:04;2.67;;;2.20;;
43042;SDS011;28667;50.758;6.096;2022-11-14T08:25:49;2.92;;;2.28;;
43042;SDS011;28667;50.758;6.096;2022-11-14T08:28:34;8.23;;;3.33;;
43042;SDS011;28667;50.758;6.096;2022-11-14T08:31:19;3.65;;;2.60;;
43042;SDS011;28667;50.758;6.096;2022-11-14T08:34:03;2.97;;;2.40;;
43042;SDS011;28667;50.758;6.096;2022-11-14T08:36:48;4.70;;;3.22;;
43042;SDS011;28667;50.758;6.096;2022-11-14T08:39:32;4.13;;;3.03;;
43042;SDS011;28667;50.758;6.096;2022-11-14T08:42:16;7.43;;;3.03;;
43042;SDS011;28667;50.758;6.096;2022-11-14T08:45:00;5.35;;;2.97;;
43042;SDS011;28667;50.758;6.096;2022-11-14T08:47:51;3.20;;;2.50;;
43042;SDS011;28667;50.758;6.096;2022-11-14T08:50:36;4.40;;;2.90;;
43042;SDS011;28667;50.758;6.096;2022-11-14T08:53:20;5.53;;;2.97;;
43042;SDS011;28667;50.758;6.096;2022-11-14T08:56:05;5.38;;;3.67;;
43042;SDS011;28667;50.758;6.096;2022-11-14T08:58:50;5.75;;;2.97;;
43042;SDS011;28667;50.758;6.096;2022-11-14T09:01:34;4.43;;;3.17;;
43042;SDS011;28667;50.758;6.096;2022-11-14T09:04:18;8.60;;;3.97;;
43042;SDS011;28667;50.758;6.096;2022-11-14T09:07:02;8.77;;;3.83;;
43042;SDS011;28667;50.758;6.096;2022-11-14T09:09:46;10.95;;;4.53;;
43042;SDS011;28667;50.758;6.096;2022-11-14T09:12:30;10.77;;;4.35;;
43042;SDS011;28667;50.758;6.096;2022-11-14T09:15:15;11.70;;;5.32;;
43042;SDS011;28667;50.758;6.096;2022-11-14T09:17:59;8.90;;;5.53;;
43042;SDS011;28667;50.758;6.096;2022-11-14T09:20:43;12.38;;;5.93;;
43042;SDS011;28667;50.758;6.096;2022-11-14T09:23:28;15.37;;;5.87;;
43042;SDS011;28667;50.758;6.096;2022-11-14T09:26:12;10.55;;;5.80;;
43042;SDS011;28667;50.758;6.096;2022-11-14T09:28:56;14.23;;;5.53;;
43042;SDS011;28667;50.758;6.096;2022-11-14T09:31:41;11.13;;;5.03;;
43042;SDS011;28667;50.758;6.096;2022-11-14T09:34:25;11.98;;;6.03;;
43042;SDS011;28667;50.758;6.096;2022-11-14T09:37:09;12.18;;;6.35;;
43042;SDS011;28667;50.758;6.096;2022-11-14T09:39:54;13.45;;;5.20;;
43042;SDS011;28667;50.758;6.096;2022-11-14T09:45:34;9.88;;;4.78;;
43042;SDS011;28667;50.758;6.096;2022-11-14T09:48:26;11.18;;;5.88;;
43042;SDS011;28667;50.758;6.096;2022-11-14T09:51:14;10.73;;;5.60;;
43042;SDS011;28667;50.758;6.096;2022-11-14T09:57:00;12.68;;;5.50;;
43042;SDS011;28667;50.758;6.096;2022-11-14T09:59:44;18.02;;;5.93;;
43042;SDS011;28667;50.758;6.096;2022-11-14T10:08:46;12.55;;;6.55;;
43042;SDS011;28667;50.758;6.096;2022-11-14T10:11:49;10.57;;;5.38;;
43042;SDS011;28667;50.758;6.096;2022-11-14T10:17:49;17.13;;;6.28;;
43042;SDS011;28667;50.758;6.096;2022-11-14T10:21:29;8.68;;;5.15;;
43042;SDS011;28667;50.758;6.096;2022-11-14T10:30:49;12.68;;;6.15;;
43042;SDS011;28667;50.758;6.096;2022-11-14T10:33:54;8.73;;;4.50;;
43042;SDS011;28667;50.758;6.096;2022-11-14T10:40:16;8.45;;;3.92;;
43042;SDS011;28667;50.758;6.096;2022-11-14T10:43:52;8.30;;;4.25;;
43042;SDS011;28667;50.758;6.096;2022-11-14T10:46:16;9.80;;;4.50;;
43042;SDS011;28667;50.758;6.096;2022-11-14T10:49:15;5.18;;;3.90;;
43042;SDS011;28667;50.758;6.096;2022-11-14T10:52:03;9.48;;;4.18;;
43042;SDS011;28667;50.758;6.096;2022-11-14T10:54:57;8.18;;;3.53;;
43042;SDS011;28667;50.758;6.096;2022-11-14T10:57:46;6.72;;;3.75;;
43042;SDS011;28667;50.758;6.096;2022-11-14T11:00:30;9.23;;;3.92;;
43042;SDS011;28667;50.758;6.096;2022-11-14T11:03:15;6.22;;;3.35;;
43042;SDS011;28667;50.758;6.096;2022-11-14T11:05:59;4.15;;;2.88;;
43042;SDS011;28667;50.758;6.096;2022-11-14T11:08:43;6.60;;;3.22;;
43042;SDS011;28667;50.758;6.096;2022-11-14T11:11:54;4.10;;;2.33;;
43042;SDS011;28667;50.758;6.096;2022-11-14T11:14:41;3.17;;;2.65;;
43042;SDS011;28667;50.758;6.096;2022-11-14T11:17:26;3.95;;;2.25;;
43042;SDS011;28667;50.758;6.096;2022-11-14T11:20:20;2.20;;;1.60;;
43042;SDS011;28667;50.758;6.096;2022-11-14T11:26:00;2.47;;;1.27;;
43042;SDS011;28667;50.758;6.096;2022-11-14T11:29:02;1.90;;;1.17;;
43042;SDS011;28667;50.758;6.096;2022-11-14T11:31:54;1.67;;;0.98;;
43042;SDS011;28667;50.758;6.096;2022-11-14T11:34:40;1.40;;;1.00;;
43042;SDS011;28667;50.758;6.096;2022-11-14T11:40:29;1.90;;;1.25;;
43042;SDS011;28667;50.758;6.096;2022-11-14T11:46:11;0.93;;;0.80;;
43042;SDS011;28667;50.758;6.096;2022-11-14T11:52:11;2.05;;;1.05;;
43042;SDS011;28667;50.758;6.096;2022-11-14T11:55:17;0.80;;;0.80;;
43042;SDS011;28667;50.758;6.096;2022-11-14T12:01:08;0.93;;;0.90;;
43042;SDS011;28667;50.758;6.096;2022-11-14T12:03:54;2.15;;;1.27;;
43042;SDS011;28667;50.758;6.096;2022-11-14T12:06:59;1.15;;;1.00;;
43042;SDS011;28667;50.758;6.096;2022-11-14T12:09:51;0.85;;;0.80;;
43042;SDS011;28667;50.758;6.096;2022-11-14T12:15:29;1.15;;;0.90;;
43042;SDS011;28667;50.758;6.096;2022-11-14T12:18:38;1.67;;;0.88;;
43042;SDS011;28667;50.758;6.096;2022-11-14T12:21:55;3.20;;;1.30;;
43042;SDS011;28667;50.758;6.096;2022-11-14T12:30:37;1.15;;;1.00;;
43042;SDS011;28667;50.758;6.096;2022-11-14T12:33:26;1.27;;;1.17;;
43042;SDS011;28667;50.758;6.096;2022-11-14T12:36:24;1.08;;;0.93;;
43042;SDS011;28667;50.758;6.096;2022-11-14T12:39:24;1.23;;;0.98;;
43042;SDS011;28667;50.758;6.096;2022-11-14T12:44:58;1.33;;;1.02;;
43042;SDS011;28667;50.758;6.096;2022-11-14T12:48:29;1.17;;;0.93;;
43042;SDS011;28667;50.758;6.096;2022-11-14T12:50:58;2.08;;;1.50;;
43042;SDS011;28667;50.758;6.096;2022-11-14T12:53:44;0.82;;;0.82;;
43042;SDS011;28667;50.758;6.096;2022-11-14T12:59:21;1.63;;;1.23;;
43042;SDS011;28667;50.758;6.096;2022-11-14T13:02:21;2.03;;;1.52;;
43042;SDS011;28667;50.758;6.096;2022-11-14T13:08:43;2.80;;;1.38;;
43042;SDS011;28667;50.758;6.096;2022-11-14T13:12:24;1.23;;;0.95;;
43042;SDS011;28667;50.758;6.096;2022-11-14T13:16:19;1.63;;;1.10;;
43042;SDS011;28667;50.758;6.096;2022-11-14T13:19:24;4.15;;;1.83;;
43042;SDS011;28667;50.758;6.096;2022-11-14T13:23:00;1.80;;;1.35;;
43042;SDS011;28667;50.758;6.096;2022-11-14T13:25:37;1.17;;;1.08;;
43042;SDS011;28667;50.758;6.096;2022-11-14T13:31:22;1.35;;;1.13;;
43042;SDS011;28667;50.758;6.096;2022-11-14T13:43:52;3.13;;;2.10;;
43042;SDS011;28667;50.758;6.096;2022-11-14T13:49:59;1.95;;;1.42;;
43042;SDS011;28667;50.758;6.096;2022-11-14T13:52:50;2.38;;;1.40;;
43042;SDS011;28667;50.758;6.096;2022-11-14T14:07:16;0.80;;;0.80;;
43042;SDS011;28667;50.758;6.096;2022-11-14T14:13:50;1.00;;;0.90;;
43042;SDS011;28667;50.758;6.096;2022-11-14T14:16:40;2.03;;;1.02;;
43042;SDS011;28667;50.758;6.096;2022-11-14T14:19:40;2.13;;;0.85;;
43042;SDS011;28667;50.758;6.096;2022-11-14T14:22:39;1.27;;;1.13;;
43042;SDS011;28667;50.758;6.096;2022-11-14T14:25:47;3.35;;;1.80;;
43042;SDS011;28667;50.758;6.096;2022-11-14T14:28:49;2.03;;;1.00;;
43042;SDS011;28667;50.758;6.096;2022-11-14T14:31:39;1.17;;;1.02;;
43042;SDS011;28667;50.758;6.096;2022-11-14T14:37:18;1.50;;;1.40;;
43042;SDS011;28667;50.758;6.096;2022-11-14T14:40:06;1.10;;;1.00;;
43042;SDS011;28667;50.758;6.096;2022-11-14T14:43:05;1.40;;;1.02;;
43042;SDS011;28667;50.758;6.096;2022-11-14T14:45:53;1.13;;;0.95;;
43042;SDS011;28667;50.758;6.096;2022-11-14T14:48:39;2.53;;;0.77;;
43042;SDS011;28667;50.758;6.096;2022-11-14T14:51:30;1.13;;;0.63;;
43042;SDS011;28667;50.758;6.096;2022-11-14T14:54:23;2.35;;;1.30;;
43042;SDS011;28667;50.758;6.096;2022-11-14T14:57:14;0.85;;;0.80;;
43042;SDS011;28667;50.758;6.096;2022-11-14T15:00:03;1.52;;;1.00;;
43042;SDS011;28667;50.758;6.096;2022-11-14T15:02:51;1.00;;;0.80;;
43042;SDS011;28667;50.758;6.096;2022-11-14T15:05:37;2.13;;;1.08;;
43042;SDS011;28667;50.758;6.096;2022-11-14T15:08:22;1.33;;;1.05;;
43042;SDS011;28667;50.758;6.096;2022-11-14T15:11:06;1.73;;;1.25;;
43042;SDS011;28667;50.758;6.096;2022-11-14T15:13:52;2.15;;;1.15;;
43042;SDS011;28667;50.758;6.096;2022-11-14T15:16:39;2.95;;;1.25;;
43042;SDS011;28667;50.758;6.096;2022-11-14T15:19:26;1.90;;;1.30;;
43042;SDS011;28667;50.758;6.096;2022-11-14T15:27:56;2.90;;;2.00;;
43042;SDS011;28667;50.758;6.096;2022-11-14T15:30:57;2.17;;;1.67;;
43042;SDS011;28667;50.758;6.096;2022-11-14T15:33:44;2.30;;;1.50;;
43042;SDS011;28667;50.758;6.096;2022-11-14T15:36:29;2.60;;;1.20;;
43042;SDS011;28667;50.758;6.096;2022-11-14T15:39:24;3.03;;;1.33;;
43042;SDS011;28667;50.758;6.096;2022-11-14T15:45:19;1.60;;;1.40;;
43042;SDS011;28667;50.758;6.096;2022-11-14T15:48:12;3.13;;;1.48;;
43042;SDS011;28667;50.758;6.096;2022-11-14T15:50:58;2.03;;;1.73;;
43042;SDS011;28667;50.758;6.096;2022-11-14T15:53:46;2.67;;;1.58;;
43042;SDS011;28667;50.758;6.096;2022-11-14T15:56:32;2.80;;;1.65;;
43042;SDS011;28667;50.758;6.096;2022-11-14T15:59:16;2.22;;;1.65;;
43042;SDS011;28667;50.758;6.096;2022-11-14T16:02:02;3.00;;;2.00;;
43042;SDS011;28667;50.758;6.096;2022-11-14T16:05:10;3.00;;;2.00;;
43042;SDS011;28667;50.758;6.096;2022-11-14T16:08:00;2.90;;;1.45;;
43042;SDS011;28667;50.758;6.096;2022-11-14T16:10:44;3.05;;;1.80;;
43042;SDS011;28667;50.758;6.096;2022-11-14T16:13:28;2.47;;;1.65;;
43042;SDS011;28667;50.758;6.096;2022-11-14T16:16:12;2.65;;;1.60;;
43042;SDS011;28667;50.758;6.096;2022-11-14T16:18:57;2.87;;;1.90;;
43042;SDS011;28667;50.758;6.096;2022-11-14T16:21:41;2.42;;;1.50;;
43042;SDS011;28667;50.758;6.096;2022-11-14T16:24:25;3.78;;;2.08;;
43042;SDS011;28667;50.758;6.096;2022-11-14T16:27:10;2.83;;;2.03;;
43042;SDS011;28667;50.758;6.096;2022-11-14T16:29:54;3.08;;;2.33;;
43042;SDS011;28667;50.758;6.096;2022-11-14T16:32:39;2.25;;;1.80;;
43042;SDS011;28667;50.758;6.096;2022-11-14T16:35:28;3.05;;;2.13;;
43042;SDS011;28667;50.758;6.096;2022-11-14T16:38:12;5.30;;;2.10;;
43042;SDS011;28667;50.758;6.096;2022-11-14T16:40:56;2.42;;;1.60;;
43042;SDS011;28667;50.758;6.096;2022-11-14T16:43:42;4.18;;;2.30;;
43042;SDS011;28667;50.758;6.096;2022-11-14T16:46:27;3.22;;;1.98;;
43042;SDS011;28667;50.758;6.096;2022-11-14T16:49:12;3.17;;;2.25;;
43042;SDS011;28667;50.758;6.096;2022-11-14T16:51:58;5.57;;;3.33;;
43042;SDS011;28667;50.758;6.096;2022-11-14T16:54:45;4.28;;;2.20;;
43042;SDS011;28667;50.758;6.096;2022-11-14T16:57:29;6.03;;;2.50;;
43042;SDS011;28667;50.758;6.096;2022-11-14T17:00:14;2.92;;;2.22;;
43042;SDS011;28667;50.758;6.096;2022-11-14T17:02:58;4.80;;;2.47;;
43042;SDS011;28667;50.758;6.096;2022-11-14T17:05:43;6.75;;;2.97;;
43042;SDS011;28667;50.758;6.096;2022-11-14T17:08:28;4.50;;;2.63;;
43042;SDS011;28667;50.758;6.096;2022-11-14T17:11:12;3.63;;;2.78;;
43042;SDS011;28667;50.758;6.096;2022-11-14T17:13:56;9.03;;;2.80;;
43042;SDS011;28667;50.758;6.096;2022-11-14T17:16:41;4.28;;;3.28;;
43042;SDS011;28667;50.758;6.096;2022-11-14T17:19:25;4.90;;;2.95;;
43042;SDS011;28667;50.758;6.096;2022-11-14T17:22:09;4.90;;;2.70;;
43042;SDS011;28667;50.758;6.096;2022-11-14T17:24:54;5.25;;;2.55;;
43042;SDS011;28667;50.758;6.096;2022-11-14T17:27:38;4.22;;;2.88;;
43042;SDS011;28667;50.758;6.096;2022-11-14T17:30:22;5.93;;;3.10;;
43042;SDS011;28667;50.758;6.096;2022-11-14T17:33:06;5.15;;;3.05;;
43042;SDS011;28667;50.758;6.096;2022-11-14T17:35:50;6.40;;;3.22;;
43042;SDS011;28667;50.758;6.096;2022-11-14T17:38:35;4.78;;;3.20;;
43042;SDS011;28667;50.758;6.096;2022-11-14T17:44:04;4.82;;;2.95;;
43042;SDS011;28667;50.758;6.096;2022-11-14T17:46:49;8.68;;;4.13;;
43042;SDS011;28667;50.758;6.096;2022-11-14T17:49:33;8.75;;;5.30;;
43042;SDS011;28667;50.758;6.096;2022-11-14T17:52:17;7.00;;;4.38;;
43042;SDS011;28667;50.758;6.096;2022-11-14T17:55:02;4.85;;;3.50;;
43042;SDS011;28667;50.758;6.096;2022-11-14T17:57:46;5.70;;;3.13;;
43042;SDS011;28667;50.758;6.096;2022-11-14T18:00:31;5.45;;;3.30;;
43042;SDS011;28667;50.758;6.096;2022-11-14T18:03:16;7.35;;;2.80;;
43042;SDS011;28667;50.758;6.096;2022-11-14T18:06:07;4.00;;;2.65;;
43042;SDS011;28667;50.758;6.096;2022-11-14T18:08:52;3.17;;;2.83;;
43042;SDS011;28667;50.758;6.096;2022-11-14T18:11:37;3.93;;;2.53;;
43042;SDS011;28667;50.758;6.096;2022-11-14T18:14:22;4.87;;;2.97;;
43042;SDS011;28667;50.758;6.096;2022-11-14T18:17:06;3.40;;;2.72;;
43042;SDS011;28667;50.758;6.096;2022-11-14T18:19:51;4.40;;;2.47;;
43042;SDS011;28667;50.758;6.096;2022-11-14T18:22:35;4.47;;;2.75;;
43042;SDS011;28667;50.758;6.096;2022-11-14T18:25:20;3.67;;;2.50;;
43042;SDS011;28667;50.758;6.096;2022-11-14T18:28:05;3.63;;;2.67;;
43042;SDS011;28667;50.758;6.096;2022-11-14T18:30:52;3.00;;;2.45;;
43042;SDS011;28667;50.758;6.096;2022-11-14T18:33:39;4.28;;;2.95;;
43042;SDS011;28667;50.758;6.096;2022-11-14T18:36:24;11.07;;;5.20;;